createdAt,value
2023-09-25T00:00:34.515Z,60.50
2023-09-25T00:03:02.767Z,60.40
2023-09-25T00:05:30.785Z,60.80
2023-09-25T00:07:57.701Z,60.60
2023-09-25T00:10:24.904Z,60.50
2023-09-25T00:12:51.905Z,60.40
2023-09-25T00:15:18.743Z,60.80
2023-09-25T00:17:45.776Z,60.20
2023-09-25T00:20:13.018Z,60.30
2023-09-25T00:22:41.122Z,60.10
2023-09-25T00:25:08.866Z,60.40
2023-09-25T00:27:35.849Z,60.40
2023-09-25T00:30:09.770Z,60.10
2023-09-25T00:32:36.914Z,60.20
2023-09-25T00:35:08.599Z,60.30
2023-09-25T00:37:36.749Z,60.10
2023-09-25T00:40:20.334Z,60.10
2023-09-25T00:42:50.240Z,60.20
2023-09-25T00:45:17.776Z,60.70
2023-09-25T00:47:45.187Z,60.20
2023-09-25T00:50:12.777Z,60.30
2023-09-25T00:52:46.674Z,60.40
2023-09-25T00:55:15.479Z,61.50
2023-09-25T00:57:44.289Z,60.60
2023-09-25T01:00:13.014Z,60.20
2023-09-25T01:02:40.946Z,60.00
2023-09-25T01:05:11.772Z,60.80
2023-09-25T01:07:39.116Z,60.30
2023-09-25T01:10:15.343Z,60.00
2023-09-25T01:12:43.009Z,61.00
2023-09-25T01:15:10.413Z,60.20
2023-09-25T01:17:37.564Z,60.10
2023-09-25T01:20:23.928Z,59.80
2023-09-25T01:22:51.486Z,60.70
2023-09-25T01:25:20.569Z,60.20
2023-09-25T01:27:48.851Z,60.90
2023-09-25T01:30:18.071Z,60.30
2023-09-25T01:32:46.609Z,60.30
2023-09-25T01:35:17.171Z,60.40
2023-09-25T01:37:46.344Z,60.20
2023-09-25T01:40:14.168Z,60.40
2023-09-25T01:42:41.462Z,60.20
2023-09-25T01:45:10.379Z,60.20
2023-09-25T01:47:37.872Z,60.80
2023-09-25T01:50:05.938Z,60.10
2023-09-25T01:52:32.690Z,60.20
2023-09-25T01:54:59.580Z,60.10
2023-09-25T01:57:27.005Z,60.00
2023-09-25T01:59:53.785Z,60.70
2023-09-25T02:02:20.536Z,60.00
2023-09-25T02:04:47.346Z,60.00
2023-09-25T02:07:16.547Z,60.00
2023-09-25T02:09:43.462Z,60.00
2023-09-25T02:12:10.313Z,59.90
2023-09-25T02:14:37.266Z,59.80
2023-09-25T02:17:04.077Z,59.90
2023-09-25T02:19:32.991Z,59.70
2023-09-25T02:21:59.810Z,59.70
2023-09-25T02:24:26.610Z,60.10
2023-09-25T02:26:53.373Z,59.70
2023-09-25T02:29:21.644Z,59.60
2023-09-25T02:31:48.443Z,60.20
2023-09-25T02:34:15.591Z,60.10
2023-09-25T02:36:42.707Z,59.50
2023-09-25T02:39:14.470Z,59.50
2023-09-25T02:41:41.327Z,59.90
2023-09-25T02:44:08.824Z,59.30
2023-09-25T02:46:35.612Z,59.40
2023-09-25T02:49:02.949Z,59.50
2023-09-25T02:51:30.048Z,59.40
2023-09-25T02:53:56.845Z,59.40
2023-09-25T02:56:23.794Z,59.30
2023-09-25T02:58:50.776Z,59.80
2023-09-25T03:01:17.752Z,59.30
2023-09-25T03:03:44.727Z,59.30
2023-09-25T03:06:11.529Z,59.20
2023-09-25T03:08:38.263Z,59.30
2023-09-25T03:11:05.023Z,59.40
2023-09-25T03:13:31.760Z,59.40
2023-09-25T03:15:58.687Z,59.60
2023-09-25T03:18:26.206Z,59.80
2023-09-25T03:20:53.002Z,59.40
2023-09-25T03:23:19.792Z,59.50
2023-09-25T03:25:46.563Z,59.50
2023-09-25T03:28:13.308Z,59.40
2023-09-25T03:30:40.217Z,60.40
2023-09-25T03:33:08.632Z,59.40
2023-09-25T03:35:35.592Z,59.50
2023-09-25T03:38:02.349Z,59.30
2023-09-25T03:40:29.410Z,59.40
2023-09-25T03:42:56.178Z,59.30
2023-09-25T03:45:25.125Z,59.50
2023-09-25T03:47:52.560Z,59.40
2023-09-25T03:50:19.436Z,59.40
2023-09-25T03:52:46.205Z,59.70
2023-09-25T03:55:12.999Z,59.70
2023-09-25T03:57:39.820Z,59.70
2023-09-25T04:00:07.941Z,59.70
2023-09-25T04:02:38.344Z,60.30
2023-09-25T04:05:05.403Z,59.60
2023-09-25T04:07:32.130Z,59.80
2023-09-25T04:09:59.591Z,59.50
2023-09-25T04:12:26.393Z,59.50
2023-09-25T04:14:54.367Z,60.00
2023-09-25T04:17:21.948Z,59.70
2023-09-25T04:19:49.628Z,59.50
2023-09-25T04:22:16.540Z,59.70
2023-09-25T04:24:43.472Z,59.60
2023-09-25T04:27:11.001Z,59.60
2023-09-25T04:29:39.744Z,59.70
2023-09-25T04:32:07.345Z,59.60
2023-09-25T04:34:36.836Z,59.60
2023-09-25T04:37:04.796Z,59.80
2023-09-25T04:39:34.148Z,59.90
2023-09-25T04:42:01.011Z,59.30
2023-09-25T04:44:28.118Z,59.40
2023-09-25T04:46:54.994Z,59.30
2023-09-25T04:49:21.885Z,59.40
2023-09-25T04:51:50.274Z,59.60
2023-09-25T04:54:18.143Z,59.30
2023-09-25T04:56:44.964Z,59.30
2023-09-25T04:59:11.689Z,59.40
2023-09-25T05:01:38.479Z,59.20
2023-09-25T05:04:05.706Z,59.40
2023-09-25T05:06:32.524Z,59.90
2023-09-25T05:08:59.318Z,59.90
2023-09-25T05:11:26.516Z,60.00
2023-09-25T05:13:53.422Z,59.30
2023-09-25T05:16:20.228Z,58.80
2023-09-25T05:18:47.249Z,60.00
2023-09-25T05:21:14.171Z,59.60
2023-09-25T05:26:07.650Z,59.40
2023-09-25T05:28:34.379Z,59.10
2023-09-25T05:31:01.290Z,59.20
2023-09-25T05:33:28.167Z,59.70
2023-09-25T05:35:56.091Z,59.10
2023-09-25T05:38:22.863Z,59.20
2023-09-25T05:40:49.648Z,59.20
2023-09-25T05:43:16.437Z,59.40
2023-09-25T05:45:44.138Z,59.20
2023-09-25T05:48:11.357Z,59.10
2023-09-25T05:50:38.648Z,59.20
2023-09-25T05:53:05.459Z,59.50
2023-09-25T05:55:32.626Z,59.00
2023-09-25T05:57:59.558Z,60.40
2023-09-25T06:00:26.492Z,59.10
2023-09-25T06:02:53.624Z,59.10
2023-09-25T06:05:20.560Z,58.90
2023-09-25T06:07:47.396Z,58.90
2023-09-25T06:10:14.393Z,59.10
2023-09-25T06:12:41.635Z,58.90
2023-09-25T06:15:13.020Z,58.80
2023-09-25T06:17:41.320Z,59.50
2023-09-25T06:20:16.528Z,59.50
2023-09-25T06:22:45.281Z,58.80
2023-09-25T06:25:12.713Z,58.80
2023-09-25T06:27:41.459Z,58.60
2023-09-25T06:30:10.791Z,58.60
2023-09-25T06:32:38.208Z,58.60
2023-09-25T06:35:07.425Z,58.30
2023-09-25T06:37:37.121Z,58.30
2023-09-25T06:40:15.437Z,57.90
2023-09-25T06:42:42.618Z,57.90
2023-09-25T06:45:09.965Z,57.50
2023-09-25T06:47:37.015Z,57.70
2023-09-25T06:50:05.268Z,57.50
2023-09-25T06:52:32.038Z,58.00
2023-09-25T06:54:58.878Z,57.30
2023-09-25T06:57:26.506Z,57.20
2023-09-25T06:59:53.879Z,57.20
2023-09-25T07:02:21.413Z,57.20
2023-09-25T07:04:48.722Z,56.90
2023-09-25T07:07:15.938Z,56.80
2023-09-25T07:09:43.526Z,57.20
2023-09-25T07:12:13.890Z,56.70
2023-09-25T07:14:40.938Z,56.70
2023-09-25T07:17:07.993Z,56.60
2023-09-25T07:19:34.729Z,56.70
2023-09-25T07:22:01.510Z,57.00
2023-09-25T07:24:28.328Z,56.60
2023-09-25T07:26:55.027Z,56.60
2023-09-25T07:29:35.133Z,56.30
2023-09-25T07:32:08.619Z,56.60
2023-09-25T07:34:35.449Z,56.20
2023-09-25T07:37:05.707Z,56.10
2023-09-25T07:39:34.468Z,55.90
2023-09-25T07:42:01.517Z,56.00
2023-09-25T07:44:28.566Z,55.70
2023-09-25T07:46:58.180Z,55.50
2023-09-25T07:49:25.273Z,55.40
2023-09-25T07:51:52.528Z,55.20
2023-09-25T07:54:20.129Z,54.90
2023-09-25T07:56:48.255Z,54.50
2023-09-25T07:59:14.995Z,54.60
2023-09-25T08:01:43.463Z,54.50
2023-09-25T08:04:10.511Z,54.20
2023-09-25T08:06:37.551Z,54.20
2023-09-25T08:09:05.005Z,54.30
2023-09-25T08:11:31.794Z,54.00
2023-09-25T08:13:58.522Z,53.80
2023-09-25T08:16:28.251Z,53.90
2023-09-25T08:18:55.282Z,53.80
2023-09-25T08:21:22.194Z,53.60
2023-09-25T08:23:49.007Z,54.60
2023-09-25T08:26:17.512Z,53.20
2023-09-25T08:28:44.358Z,53.20
2023-09-25T08:31:11.070Z,53.00
2023-09-25T08:33:37.849Z,52.70
2023-09-25T08:36:04.792Z,52.90
2023-09-25T08:38:31.568Z,52.90
2023-09-25T08:40:58.900Z,52.80
2023-09-25T08:43:27.648Z,53.00
2023-09-25T08:45:56.401Z,52.90
2023-09-25T08:48:23.428Z,53.10
2023-09-25T08:50:51.099Z,53.10
2023-09-25T08:53:19.328Z,53.30
2023-09-25T08:55:46.658Z,53.10
2023-09-25T08:58:13.420Z,53.20
2023-09-25T09:00:41.834Z,53.10
2023-09-25T09:03:09.016Z,53.10
2023-09-25T09:05:36.335Z,53.00
2023-09-25T09:08:06.574Z,53.00
2023-09-25T09:10:35.113Z,53.20
2023-09-25T09:13:03.987Z,53.00
2023-09-25T09:15:32.359Z,53.30
2023-09-25T09:17:59.875Z,53.20
2023-09-25T09:20:39.876Z,52.60
2023-09-25T09:23:10.181Z,53.50
2023-09-25T09:25:37.366Z,52.50
2023-09-25T09:28:07.274Z,52.50
2023-09-25T09:30:34.172Z,53.20
2023-09-25T09:33:00.960Z,52.50
2023-09-25T09:35:28.421Z,52.60
2023-09-25T09:37:59.240Z,52.50
2023-09-25T09:40:28.082Z,52.70
2023-09-25T09:42:55.493Z,52.40
2023-09-25T09:45:23.196Z,52.30
2023-09-25T09:47:54.065Z,52.40
2023-09-25T09:50:26.708Z,52.40
2023-09-25T09:52:54.011Z,52.20
2023-09-25T09:55:22.957Z,51.80
2023-09-25T09:57:51.281Z,52.10
2023-09-25T10:00:18.850Z,52.00
2023-09-25T10:02:48.302Z,51.10
2023-09-25T10:05:16.789Z,51.10
2023-09-25T10:08:11.726Z,50.70
2023-09-25T10:10:39.797Z,51.40
2023-09-25T10:13:16.333Z,51.10
2023-09-25T10:15:57.958Z,51.30
2023-09-25T10:18:27.621Z,51.40
2023-09-25T10:21:15.634Z,51.40
2023-09-25T10:23:50.964Z,52.10
2023-09-25T10:26:26.080Z,52.50
2023-09-25T10:29:15.531Z,51.80
2023-09-25T10:31:51.341Z,51.50
2023-09-25T10:34:18.241Z,51.10
2023-09-25T10:36:48.928Z,50.70
2023-09-25T10:39:18.857Z,50.70
2023-09-25T10:41:58.057Z,50.70
2023-09-25T10:44:26.914Z,50.50
2023-09-25T10:46:53.852Z,50.40
2023-09-25T10:49:20.731Z,50.50
2023-09-25T10:51:48.412Z,50.50
2023-09-25T10:54:15.714Z,50.30
2023-09-25T10:56:42.767Z,49.80
2023-09-25T10:59:09.567Z,50.00
2023-09-25T11:01:36.544Z,49.70
2023-09-25T11:04:04.379Z,49.50
2023-09-25T11:06:31.943Z,49.00
2023-09-25T11:09:06.606Z,49.00
2023-09-25T11:11:33.771Z,49.10
2023-09-25T11:14:00.711Z,49.00
2023-09-25T11:16:28.354Z,48.90
2023-09-25T11:19:11.845Z,49.00
2023-09-25T11:21:40.676Z,49.20
2023-09-25T11:24:11.563Z,48.60
2023-09-25T11:26:39.227Z,48.40
2023-09-25T11:29:09.836Z,48.10
2023-09-25T11:31:54.574Z,48.10
2023-09-25T11:34:27.136Z,48.10
2023-09-25T11:36:54.490Z,48.00
2023-09-25T11:39:21.361Z,47.80
2023-09-25T11:41:48.227Z,47.80
2023-09-25T11:44:15.371Z,47.70
2023-09-25T11:46:43.865Z,47.80
2023-09-25T11:49:10.942Z,47.60
2023-09-25T11:51:37.836Z,47.80
2023-09-25T11:54:05.977Z,47.50
2023-09-25T11:56:33.844Z,48.40
2023-09-25T11:59:01.402Z,47.40
2023-09-25T12:01:29.494Z,47.80
2023-09-25T12:03:56.948Z,47.50
2023-09-25T12:06:27.357Z,47.90
2023-09-25T12:08:55.381Z,47.20
2023-09-25T12:11:22.493Z,47.30
2023-09-25T12:13:50.726Z,46.80
2023-09-25T12:16:18.756Z,46.90
2023-09-25T12:18:46.231Z,46.60
2023-09-25T12:21:13.166Z,46.50
2023-09-25T12:23:40.010Z,46.70
2023-09-25T12:26:07.725Z,46.10
2023-09-25T12:28:35.727Z,46.20
2023-09-25T12:31:02.688Z,46.20
2023-09-25T12:33:29.564Z,45.90
2023-09-25T12:35:56.424Z,45.80
2023-09-25T12:38:23.278Z,45.40
2023-09-25T12:40:50.216Z,45.40
2023-09-25T12:43:17.068Z,45.50
2023-09-25T12:45:43.987Z,44.90
2023-09-25T12:48:11.164Z,45.30
2023-09-25T12:50:39.119Z,45.10
2023-09-25T12:53:06.448Z,43.50
2023-09-25T12:55:34.571Z,42.90
2023-09-25T12:58:02.067Z,43.50
2023-09-25T13:00:29.379Z,43.70
2023-09-25T13:02:56.383Z,43.40
2023-09-25T13:05:23.290Z,43.00
2023-09-25T13:07:51.104Z,42.40
2023-09-25T13:10:19.369Z,42.60
2023-09-25T13:12:46.126Z,42.80
2023-09-25T13:15:13.380Z,43.50
2023-09-25T13:17:40.286Z,42.80
2023-09-25T13:20:09.157Z,41.80
2023-09-25T13:22:38.047Z,41.70
2023-09-25T13:25:06.764Z,42.10
2023-09-25T13:27:33.976Z,42.00
2023-09-25T13:30:00.982Z,42.40
2023-09-25T13:32:27.970Z,42.20
2023-09-25T13:34:54.815Z,41.90
2023-09-25T13:37:21.867Z,42.50
2023-09-25T13:39:48.766Z,41.50
2023-09-25T13:42:15.630Z,41.10
2023-09-25T13:44:43.791Z,41.00
2023-09-25T13:47:12.305Z,41.30
2023-09-25T13:49:44.399Z,40.80
2023-09-25T13:52:12.351Z,40.80
2023-09-25T13:54:39.356Z,40.80
2023-09-25T13:57:06.466Z,40.70
2023-09-25T13:59:34.186Z,40.60
2023-09-25T14:02:01.154Z,40.70
2023-09-25T14:04:29.182Z,40.40
2023-09-25T14:06:56.507Z,40.40
2023-09-25T14:09:25.705Z,40.20
2023-09-25T14:11:54.221Z,40.10
2023-09-25T14:14:22.358Z,40.10
2023-09-25T14:16:50.193Z,40.10
2023-09-25T14:19:17.000Z,40.60
2023-09-25T14:21:43.736Z,40.80
2023-09-25T14:24:10.675Z,41.10
2023-09-25T14:26:37.417Z,41.50
2023-09-25T14:29:04.289Z,41.30
2023-09-25T14:31:30.983Z,41.40
2023-09-25T14:33:59.124Z,41.70
2023-09-25T14:36:27.215Z,41.80
2023-09-25T14:38:53.980Z,41.70
2023-09-25T14:41:20.725Z,41.80
2023-09-25T14:43:47.553Z,42.20
2023-09-25T14:46:14.546Z,42.20
2023-09-25T14:48:47.400Z,41.90
2023-09-25T14:51:17.175Z,42.40
2023-09-25T14:53:43.939Z,42.50
2023-09-25T14:56:13.215Z,42.50
2023-09-25T14:58:40.605Z,42.70
2023-09-25T15:01:09.252Z,43.30
2023-09-25T15:03:36.467Z,43.20
2023-09-25T15:06:03.427Z,43.00
2023-09-25T15:08:30.194Z,42.80
2023-09-25T15:10:57.522Z,41.90
2023-09-25T15:13:24.849Z,42.20
2023-09-25T15:15:51.784Z,42.80
2023-09-25T15:18:18.810Z,42.50
2023-09-25T15:20:45.913Z,42.80
2023-09-25T15:23:12.724Z,43.10
2023-09-25T15:25:39.661Z,43.20
2023-09-25T15:28:06.954Z,43.00
2023-09-25T15:30:34.315Z,43.10
2023-09-25T15:33:01.312Z,44.20
2023-09-25T15:35:28.633Z,44.60
2023-09-25T15:37:55.479Z,44.10
2023-09-25T15:40:24.590Z,43.50
2023-09-25T15:42:53.091Z,43.40
2023-09-25T15:45:20.940Z,43.60
2023-09-25T15:47:48.364Z,43.80
2023-09-25T15:50:15.372Z,43.40
2023-09-25T15:52:42.251Z,43.30
2023-09-25T15:55:09.450Z,43.90
2023-09-25T15:57:37.014Z,44.90
2023-09-25T16:00:06.998Z,45.60
2023-09-25T16:02:33.943Z,46.10
2023-09-25T16:05:00.993Z,46.70
2023-09-25T16:07:29.013Z,47.10
2023-09-25T16:09:56.325Z,47.20
2023-09-25T16:12:23.425Z,47.50
2023-09-25T16:14:50.232Z,47.80
2023-09-25T16:17:17.140Z,48.00
2023-09-25T16:19:43.995Z,48.10
2023-09-25T16:22:10.922Z,48.90
2023-09-25T16:24:37.870Z,49.00
2023-09-25T16:27:04.754Z,49.30
2023-09-25T16:29:31.843Z,49.60
2023-09-25T16:31:58.739Z,49.60
2023-09-25T16:34:25.617Z,49.70
2023-09-25T16:36:52.538Z,49.70
2023-09-25T16:39:19.515Z,50.00
2023-09-25T16:41:46.825Z,50.30
2023-09-25T16:44:13.623Z,50.60
2023-09-25T16:46:40.955Z,50.60
2023-09-25T16:49:08.373Z,50.80
2023-09-25T16:51:35.295Z,51.00
2023-09-25T16:54:02.132Z,51.30
2023-09-25T16:56:28.910Z,51.30
2023-09-25T16:58:55.854Z,51.60
2023-09-25T17:01:22.855Z,51.80
2023-09-25T17:03:50.209Z,52.10
2023-09-25T17:06:17.201Z,52.60
2023-09-25T17:08:43.935Z,52.80
2023-09-25T17:11:10.799Z,52.80
2023-09-25T17:13:37.552Z,53.00
2023-09-25T17:16:10.513Z,53.00
2023-09-25T17:18:37.871Z,53.50
2023-09-25T17:21:05.150Z,54.00
2023-09-25T17:23:31.995Z,54.00
2023-09-25T17:25:58.771Z,54.00
2023-09-25T17:28:25.529Z,54.10
2023-09-25T17:31:08.509Z,54.10
2023-09-25T17:33:36.337Z,54.30
2023-09-25T17:36:03.262Z,54.40
2023-09-25T17:38:32.271Z,54.70
2023-09-25T17:40:59.280Z,54.90
2023-09-25T17:43:27.161Z,55.00
2023-09-25T17:45:54.577Z,55.10
2023-09-25T17:48:21.669Z,55.20
2023-09-25T17:50:52.398Z,55.20
2023-09-25T17:53:19.856Z,55.40
2023-09-25T17:55:50.396Z,55.70
2023-09-25T17:58:29.328Z,56.10
2023-09-25T18:01:01.466Z,56.30
2023-09-25T18:03:29.714Z,56.40
2023-09-25T18:05:56.591Z,56.50
2023-09-25T18:08:24.545Z,56.70
2023-09-25T18:10:51.332Z,56.80
2023-09-25T18:13:21.149Z,57.10
2023-09-25T18:15:52.199Z,57.20
2023-09-25T18:18:19.441Z,57.50
2023-09-25T18:20:46.348Z,57.50
2023-09-25T18:23:13.281Z,57.60
2023-09-25T18:25:42.198Z,57.80
2023-09-25T18:28:09.206Z,58.00
2023-09-25T18:30:36.706Z,57.70
2023-09-25T18:33:09.174Z,57.80
2023-09-25T18:35:36.816Z,57.90
2023-09-25T18:38:04.417Z,58.20
2023-09-25T18:40:33.398Z,58.00
2023-09-25T18:43:02.838Z,58.40
2023-09-25T18:45:29.697Z,58.20
2023-09-25T18:47:56.649Z,58.60
2023-09-25T18:50:23.528Z,58.80
2023-09-25T18:52:50.370Z,58.90
2023-09-25T18:55:17.217Z,59.10
2023-09-25T18:57:43.978Z,59.50
2023-09-25T19:00:11.143Z,59.50
2023-09-25T19:02:38.068Z,59.50
2023-09-25T19:05:05.223Z,59.60
2023-09-25T19:07:33.002Z,59.60
2023-09-25T19:10:04.438Z,60.00
2023-09-25T19:12:31.389Z,59.80
2023-09-25T19:14:58.167Z,60.10
2023-09-25T19:17:25.879Z,59.90
2023-09-25T19:19:52.811Z,60.40
2023-09-25T19:22:19.661Z,60.10
2023-09-25T19:24:46.568Z,61.10
2023-09-25T19:27:13.415Z,60.40
2023-09-25T19:29:40.240Z,60.50
2023-09-25T19:32:07.095Z,60.60
2023-09-25T19:34:34.069Z,60.50
2023-09-25T19:37:00.942Z,60.50
2023-09-25T19:39:27.638Z,60.60
2023-09-25T19:41:54.395Z,60.90
2023-09-25T19:44:21.112Z,60.80
2023-09-25T19:46:48.016Z,60.90
2023-09-25T19:49:14.884Z,61.40
2023-09-25T19:51:41.676Z,62.00
2023-09-25T19:54:08.584Z,61.20
2023-09-25T19:56:35.384Z,61.20
2023-09-25T19:59:02.187Z,61.30
2023-09-25T20:01:29.359Z,61.30
2023-09-25T20:03:56.911Z,61.90
2023-09-25T20:06:24.307Z,61.60
2023-09-25T20:08:51.347Z,61.50
2023-09-25T20:11:18.282Z,61.20
2023-09-25T20:13:45.236Z,61.60
2023-09-25T20:16:12.199Z,61.80
2023-09-25T20:18:39.141Z,61.80
2023-09-25T20:21:05.989Z,61.70
2023-09-25T20:23:32.776Z,62.20
2023-09-25T20:25:59.585Z,61.90
2023-09-25T20:28:26.529Z,61.80
2023-09-25T20:30:53.336Z,61.80
2023-09-25T20:33:20.273Z,62.10
2023-09-25T20:35:47.064Z,62.00
2023-09-25T20:38:13.796Z,61.90
2023-09-25T20:40:40.642Z,62.20
2023-09-25T20:43:07.676Z,62.40
2023-09-25T20:45:34.389Z,62.30
2023-09-25T20:48:01.240Z,62.40
2023-09-25T20:50:29.244Z,62.30
2023-09-25T20:52:56.637Z,62.30
2023-09-25T20:55:23.660Z,63.20
2023-09-25T20:57:51.174Z,62.10
2023-09-25T21:00:18.705Z,62.20
2023-09-25T21:02:45.597Z,62.40
2023-09-25T21:05:13.231Z,63.50
2023-09-25T21:07:40.107Z,62.60
2023-09-25T21:10:07.399Z,63.10
2023-09-25T21:12:34.709Z,62.70
2023-09-25T21:15:01.858Z,62.80
2023-09-25T21:17:28.736Z,62.80
2023-09-25T21:19:55.574Z,63.20
2023-09-25T21:22:22.427Z,63.00
2023-09-25T21:24:50.278Z,63.10
2023-09-25T21:27:18.740Z,63.20
2023-09-25T21:29:46.068Z,63.30
2023-09-25T21:32:14.427Z,63.30
2023-09-25T21:34:41.607Z,63.60
2023-09-25T21:37:08.597Z,64.10
2023-09-25T21:39:35.518Z,63.70
2023-09-25T21:42:04.069Z,63.70
2023-09-25T21:44:31.794Z,63.80
2023-09-25T21:46:58.887Z,63.80
2023-09-25T21:49:26.366Z,63.80
2023-09-25T21:51:53.448Z,63.80
2023-09-25T21:54:20.381Z,63.80
2023-09-25T21:56:47.608Z,64.10
2023-09-25T21:59:14.480Z,64.40
2023-09-25T22:01:41.438Z,64.10
2023-09-25T22:04:09.843Z,64.20
2023-09-25T22:06:36.915Z,64.30
2023-09-25T22:09:06.159Z,64.50
2023-09-25T22:11:33.154Z,64.70
2023-09-25T22:14:00.568Z,64.60
2023-09-25T22:16:27.565Z,64.90
2023-09-25T22:18:54.713Z,65.10
2023-09-25T22:21:21.537Z,64.80
2023-09-25T22:23:48.445Z,64.70
2023-09-25T22:26:15.335Z,64.80
2023-09-25T22:28:43.997Z,65.00
2023-09-25T22:31:18.704Z,65.80
2023-09-25T22:33:47.590Z,65.40
2023-09-25T22:36:14.995Z,65.30
2023-09-25T22:38:42.133Z,65.40
2023-09-25T22:41:09.043Z,65.30
2023-09-25T22:43:35.901Z,65.40
2023-09-25T22:46:02.820Z,65.40
2023-09-25T22:48:31.432Z,65.60
2023-09-25T22:50:58.523Z,66.60
2023-09-25T22:53:25.323Z,65.90
2023-09-25T22:55:52.605Z,65.90
2023-09-25T22:58:19.960Z,66.00
2023-09-25T23:00:51.765Z,66.00
2023-09-25T23:03:19.550Z,66.30
2023-09-25T23:05:47.585Z,66.20
2023-09-25T23:08:14.524Z,66.30
2023-09-25T23:10:41.372Z,66.30
2023-09-25T23:13:08.296Z,66.20
2023-09-25T23:15:35.092Z,66.30
2023-09-25T23:18:02.001Z,66.20
2023-09-25T23:20:29.516Z,67.10
2023-09-25T23:22:56.650Z,66.60
2023-09-25T23:25:28.043Z,66.40
2023-09-25T23:27:55.440Z,66.50
2023-09-25T23:30:23.103Z,66.50
2023-09-25T23:32:51.916Z,66.50
2023-09-25T23:35:19.547Z,66.60
2023-09-25T23:37:49.849Z,66.50
2023-09-25T23:40:20.031Z,67.70
2023-09-25T23:42:47.319Z,66.60
2023-09-25T23:45:15.141Z,66.50
2023-09-25T23:47:42.851Z,66.60
2023-09-25T23:50:11.595Z,66.60
2023-09-25T23:52:40.111Z,66.70
2023-09-25T23:55:08.170Z,66.70
2023-09-25T23:57:39.568Z,66.70
